Time;durP1;ratioP1;P1;durP2;ratioP2;P2;SDS_P1;SDS_P2;PMS_P1;PMS_P2;Temp;Humidity;BMP_temperature;BMP_pressure;BME280_temperature;BME280_humidity;BME280_pressure;Samples;Min_cycle;Max_cycle;Signal;HPM_P1;HPM_P2
2023/07/03 00:01:00;;;;;;;5.77;2.53;;;19.00;64.70;;;;;;4826270;29;20475;-84
2023/07/03 00:03:38;;;;;;;7.47;2.57;;;19.00;64.70;;;;;;4902057;29;20482;-86
2023/07/03 00:06:23;;;;;;;5.10;2.43;;;19.30;64.50;;;;;;4888239;29;20576;-84
2023/07/03 00:08:58;;;;;;;4.70;2.23;;;19.40;63.30;;;;;;4887870;29;20538;-83
2023/07/03 00:11:50;;;;;;;5.80;2.67;;;19.20;63.50;;;;;;4875340;29;21169;-84
2023/07/03 00:14:48;;;;;;;6.10;2.47;;;19.10;64.30;;;;;;4885189;29;20500;-85
2023/07/03 00:17:47;;;;;;;6.83;2.57;;;19.00;64.80;;;;;;4884457;29;20530;-83
2023/07/03 00:20:28;;;;;;;5.63;2.17;;;19.00;64.70;;;;;;4885874;29;20503;-83
2023/07/03 00:23:12;;;;;;;7.20;2.23;;;19.00;64.70;;;;;;4831822;29;20486;-84
2023/07/03 00:26:24;;;;;;;8.17;2.63;;;19.10;64.80;;;;;;4817488;29;20516;-85
2023/07/03 00:29:16;;;;;;;4.97;2.20;;;19.00;65.00;;;;;;4827392;29;20940;-84
2023/07/03 00:32:28;;;;;;;6.17;2.63;;;18.90;65.10;;;;;;4801568;29;20466;-82
2023/07/03 00:38:57;;;;;;;5.80;2.50;;;19.00;65.30;;;;;;4790770;29;20470;-84
2023/07/03 00:41:57;;;;;;;5.40;2.50;;;18.80;65.40;;;;;;4818392;29;20883;-84
2023/07/03 00:44:38;;;;;;;7.17;2.43;;;18.70;66.20;;;;;;4830846;29;20654;-83
2023/07/03 00:47:33;;;;;;;7.80;2.57;;;18.60;66.50;;;;;;4826238;29;20497;-85
2023/07/03 00:50:18;;;;;;;5.20;2.57;;;18.70;66.80;;;;;;4831265;29;21246;-85
2023/07/03 00:53:10;;;;;;;5.70;2.40;;;18.60;66.90;;;;;;4841639;29;20467;-85
2023/07/03 00:56:17;;;;;;;4.40;2.20;;;18.70;67.10;;;;;;4886508;29;21019;-87
2023/07/03 00:59:00;;;;;;;8.23;2.17;;;18.70;66.80;;;;;;4890261;29;20478;-85
2023/07/03 01:02:26;;;;;;;8.27;3.10;;;18.60;67.00;;;;;;4896819;29;20449;-86
2023/07/03 01:05:34;;;;;;;7.70;2.60;;;18.50;67.60;;;;;;4887192;29;20505;-86
2023/07/03 01:08:34;;;;;;;7.70;2.57;;;18.70;67.00;;;;;;4908611;29;20541;-84
2023/07/03 01:11:09;;;;;;;7.13;2.80;;;18.40;68.00;;;;;;4888744;29;20471;-86
2023/07/03 01:14:00;;;;;;;4.20;2.17;;;18.40;68.80;;;;;;4895440;29;20563;-84
2023/07/03 01:16:38;;;;;;;5.80;2.27;;;18.30;69.00;;;;;;4893788;29;20464;-86
2023/07/03 01:19:29;;;;;;;4.70;2.20;;;18.20;69.60;;;;;;4890728;29;21150;-87
2023/07/03 01:22:42;;;;;;;8.83;2.60;;;18.20;69.90;;;;;;4898744;29;20963;-87
2023/07/03 01:25:46;;;;;;;6.00;2.30;;;18.10;70.20;;;;;;4907320;29;20499;-84
2023/07/03 01:28:24;;;;;;;7.07;2.97;;;18.10;70.90;;;;;;4923214;29;20474;-86
2023/07/03 01:34:43;;;;;;;6.30;3.27;;;18.30;70.90;;;;;;4883112;29;21053;-83
2023/07/03 01:37:37;;;;;;;5.40;2.53;;;18.10;71.40;;;;;;4899083;29;21161;-85
2023/07/03 01:40:26;;;;;;;7.30;2.70;;;18.00;71.70;;;;;;4881824;29;20550;-85
2023/07/03 01:43:02;;;;;;;6.53;2.80;;;18.00;71.90;;;;;;4908484;29;20459;-85
2023/07/03 01:46:06;;;;;;;7.77;2.83;;;18.10;72.40;;;;;;4892273;29;20990;-86
2023/07/03 01:49:02;;;;;;;6.23;3.10;;;18.10;72.20;;;;;;4873780;29;20474;-85
2023/07/03 01:55:58;;;;;;;5.87;2.53;;;17.90;73.20;;;;;;4889983;29;20510;-84
2023/07/03 01:58:59;;;;;;;11.53;2.50;;;18.00;73.60;;;;;;4884932;29;20472;-83
2023/07/03 02:01:45;;;;;;;5.33;2.13;;;18.00;73.40;;;;;;4890841;29;20859;-85
2023/07/03 02:04:50;;;;;;;13.70;5.13;;;17.80;73.80;;;;;;4893707;29;20488;-83
2023/07/03 02:07:44;;;;;;;4.27;2.20;;;17.70;74.30;;;;;;4903595;29;20787;-82
2023/07/03 02:10:19;;;;;;;6.17;2.90;;;18.10;73.70;;;;;;4893604;29;20471;-84
2023/07/03 02:13:05;;;;;;;8.70;2.37;;;18.00;73.70;;;;;;4908004;29;20444;-85
2023/07/03 02:15:59;;;;;;;11.40;3.03;;;17.70;74.60;;;;;;4909694;29;20499;-85
2023/07/03 02:18:51;;;;;;;6.03;3.03;;;17.50;75.50;;;;;;4910964;29;20447;-83
2023/07/03 02:21:31;;;;;;;8.23;3.00;;;17.40;76.50;;;;;;4906274;29;20507;-86
2023/07/03 02:24:13;;;;;;;10.90;3.30;;;17.30;76.70;;;;;;4909282;29;20468;-84
2023/07/03 02:26:58;;;;;;;16.20;3.07;;;17.20;77.30;;;;;;4923844;28;20448;-84
2023/07/03 02:29:56;;;;;;;11.10;2.90;;;17.20;77.70;;;;;;4911840;29;20443;-85
2023/07/03 02:32:48;;;;;;;6.00;2.70;;;17.20;78.20;;;;;;4908378;29;20768;-87
2023/07/03 02:35:36;;;;;;;8.97;2.87;;;17.20;78.90;;;;;;4921263;29;20515;-85
2023/07/03 02:38:26;;;;;;;9.20;2.80;;;17.40;78.10;;;;;;4894535;29;20765;-87
2023/07/03 02:41:10;;;;;;;7.70;2.90;;;17.30;78.10;;;;;;4903893;29;20485;-86
2023/07/03 02:44:18;;;;;;;9.60;3.03;;;17.20;78.70;;;;;;4891860;29;20493;-87
2023/07/03 02:47:31;;;;;;;7.00;2.50;;;17.00;79.70;;;;;;4891250;29;20475;-86
2023/07/03 02:50:40;;;;;;;7.20;2.50;;;16.90;80.60;;;;;;4891689;29;20634;-85
2023/07/03 02:54:26;;;;;;;;;;;;;;;;;;;;;
2023/07/03 02:57:29;;;;;;;10.30;3.40;;;17.10;80.60;;;;;;4809508;29;20474;-84
2023/07/03 03:00:48;;;;;;;5.57;2.30;;;17.20;79.90;;;;;;4863854;29;20455;-84
2023/07/03 03:03:28;;;;;;;4.97;2.33;;;17.00;80.60;;;;;;4888145;29;20475;-84
2023/07/03 03:09:36;;;;;;;6.47;2.53;;;16.90;81.60;;;;;;4887641;29;20570;-83
2023/07/03 03:13:06;;;;;;;8.40;2.87;;;16.90;81.50;;;;;;4888269;29;20471;-86
2023/07/03 03:15:47;;;;;;;5.40;2.70;;;16.80;82.30;;;;;;4901140;29;20498;-87
2023/07/03 03:18:29;;;;;;;11.20;2.37;;;16.90;82.30;;;;;;4888011;29;20839;-85
2023/07/03 03:21:31;;;;;;;10.00;2.73;;;17.00;82.30;;;;;;4890584;29;20538;-85
2023/07/03 03:24:18;;;;;;;8.70;3.30;;;16.80;82.50;;;;;;4890195;29;21301;-85
2023/07/03 03:27:42;;;;;;;8.17;2.97;;;16.80;82.90;;;;;;4905673;29;20475;-86
2023/07/03 03:31:01;;;;;;;7.10;3.10;;;16.90;82.20;;;;;;4877164;29;22049;-84
2023/07/03 03:34:12;;;;;;;7.30;2.67;;;16.90;83.80;;;;;;4887000;29;20499;-83
2023/07/03 03:37:14;;;;;;;;;;;;;;;;;;;;;
2023/07/03 03:40:11;;;;;;;10.40;2.90;;;17.20;82.50;;;;;;4891077;29;20462;-85
2023/07/03 03:43:22;;;;;;;7.70;2.50;;;17.30;81.70;;;;;;4890017;29;20997;-83
2023/07/03 03:46:24;;;;;;;5.53;3.00;;;17.10;82.50;;;;;;4894191;29;20610;-86
2023/07/03 03:52:35;;;;;;;11.37;3.33;;;17.20;81.40;;;;;;4860500;29;20500;-84
2023/07/03 03:55:31;;;;;;;6.03;2.70;;;17.10;82.70;;;;;;4866071;29;22481;-86
2023/07/03 03:58:19;;;;;;;12.43;3.10;;;17.10;83.00;;;;;;4854765;29;20502;-84
2023/07/03 04:01:14;;;;;;;9.20;2.70;;;17.00;83.20;;;;;;4852851;29;20982;-86
2023/07/03 04:04:02;;;;;;;8.90;3.80;;;17.00;84.20;;;;;;4878691;29;20472;-84
2023/07/03 04:06:45;;;;;;;5.83;2.53;;;16.90;83.80;;;;;;4831608;29;20470;-84
2023/07/03 04:09:50;;;;;;;7.07;2.90;;;17.00;84.20;;;;;;4846669;29;20461;-83
2023/07/03 04:12:33;;;;;;;5.23;2.27;;;17.10;83.60;;;;;;4858609;29;21064;-86
2023/07/03 04:15:32;;;;;;;10.90;2.80;;;17.10;83.60;;;;;;4879653;29;20490;-86
2023/07/03 04:18:34;;;;;;;10.90;2.90;;;17.10;84.70;;;;;;4861901;29;20482;-84
2023/07/03 04:21:31;;;;;;;9.27;2.30;;;17.20;84.30;;;;;;4878029;29;20448;-86
2023/07/03 04:24:28;;;;;;;8.63;3.63;;;17.10;84.70;;;;;;4879301;29;20462;-87
2023/07/03 04:27:39;;;;;;;8.83;2.77;;;17.00;85.10;;;;;;4861036;29;20465;-88
2023/07/03 04:30:18;;;;;;;14.80;4.00;;;16.90;86.00;;;;;;4889359;29;20669;-84
2023/07/03 04:37:09;;;;;;;9.57;2.80;;;16.90;87.70;;;;;;4898222;29;20486;-86
2023/07/03 04:44:27;;;;;;;;;;;;;;;;;;;;;
2023/07/03 04:47:49;;;;;;;8.03;3.10;;;17.20;88.20;;;;;;4800516;29;21092;-85
2023/07/03 04:51:11;;;;;;;8.03;2.83;;;17.40;87.40;;;;;;4888046;29;20470;-83
2023/07/03 05:11:21;;;;;;;13.67;3.97;;;17.60;89.50;;;;;;4015215;23;20588;-86
2023/07/03 05:14:38;;;;;;;;;;;;;;;;;;;;;
2023/07/03 05:17:38;;;;;;;11.23;3.50;;;17.50;90.10;;;;;;4810499;29;20483;-87
2023/07/03 05:21:06;;;;;;;12.30;3.37;;;17.50;90.00;;;;;;4796838;29;20454;-85
2023/07/03 05:24:00;;;;;;;14.03;3.50;;;17.40;90.50;;;;;;4888423;29;20556;-86
2023/07/03 05:26:40;;;;;;;8.70;3.93;;;17.50;90.40;;;;;;4938743;23;21070;-84
2023/07/03 05:33:42;;;;;;;7.20;3.17;;;17.40;90.70;;;;;;4761483;29;20482;-85
2023/07/03 05:36:53;;;;;;;;;;;;;;;;;;;;;
2023/07/03 05:39:49;;;;;;;12.07;3.90;;;17.50;90.70;;;;;;4784245;29;20473;-87
2023/07/03 05:42:48;;;;;;;10.77;3.50;;;17.50;90.60;;;;;;4880870;29;20502;-85
2023/07/03 05:46:36;;;;;;;7.00;3.30;;;17.30;90.90;;;;;;4906676;29;20593;-86
2023/07/03 05:49:48;;;;;;;7.60;4.10;;;17.50;91.10;;;;;;4812483;29;20542;-85
2023/07/03 05:57:38;;;;;;;12.47;4.30;;;17.60;90.70;;;;;;4903050;29;20523;-86
2023/07/03 06:01:17;;;;;;;10.57;4.63;;;17.50;91.10;;;;;;4851575;29;20477;-85
2023/07/03 06:04:46;;;;;;;7.50;2.80;;;17.60;91.30;;;;;;4881458;29;20465;-85
2023/07/03 06:08:42;;;;;;;11.47;3.00;;;18.00;90.60;;;;;;4902568;29;20510;-84
2023/07/03 06:20:29;;;;;;;11.83;3.53;;;17.80;90.60;;;;;;4755655;30;20470;-83
2023/07/03 06:41:52;;;;;;;5.43;2.80;;;18.40;90.00;;;;;;4711182;30;20498;-85
2023/07/03 06:49:17;;;;;;;8.30;2.80;;;18.30;90.00;;;;;;4761168;29;20472;-85
2023/07/03 06:53:09;;;;;;;8.03;3.03;;;18.00;90.30;;;;;;4766140;29;20582;-86
2023/07/03 06:56:39;;;;;;;7.40;2.57;;;18.00;90.70;;;;;;4735812;30;20586;-86
2023/07/03 07:03:01;;;;;;;9.40;3.70;;;18.20;90.70;;;;;;4788045;29;20465;-84
2023/07/03 07:06:33;;;;;;;10.90;2.90;;;18.30;90.30;;;;;;4769351;29;20488;-85
2023/07/03 07:10:16;;;;;;;;;;;;;;;;;;;;;
2023/07/03 07:14:17;;;;;;;;;;;;;;;;;;;;;
2023/07/03 07:17:34;;;;;;;7.70;3.43;;;19.10;87.10;;;;;;4849494;29;21160;-85
2023/07/03 07:20:24;;;;;;;6.17;2.77;;;18.80;87.80;;;;;;4906580;29;20462;-84
2023/07/03 07:23:06;;;;;;;6.73;3.40;;;19.20;87.30;;;;;;4891760;29;20817;-84
2023/07/03 07:30:42;;;;;;;10.30;5.00;;;19.10;87.30;;;;;;4881343;29;20496;-85
2023/07/03 07:42:17;;;;;;;;;;;;;;;;;;;;;
2023/07/03 07:49:24;;;;;;;7.33;3.40;;;20.10;82.60;;;;;;4773798;30;20508;-85
2023/07/03 07:52:47;;;;;;;;;;;;;;;;;;;;;
2023/07/03 07:56:32;;;;;;;;;;;;;;;;;;;;;
2023/07/03 07:59:52;;;;;;;5.17;2.83;;;20.00;81.60;;;;;;4766132;30;20556;-86
2023/07/03 08:14:55;;;;;;;7.27;3.13;;;19.90;75.80;;;;;;1250765;26;20531;-85
2023/07/03 08:17:39;;;;;;;7.57;2.97;;;20.10;76.00;;;;;;4912408;28;20553;-85
2023/07/03 08:20:21;;;;;;;6.33;2.70;;;20.50;75.40;;;;;;4926738;29;20469;-85
2023/07/03 08:23:59;;;;;;;9.87;2.80;;;21.10;72.40;;;;;;4891399;29;20459;-84
2023/07/03 08:27:08;;;;;;;5.07;2.60;;;21.10;68.70;;;;;;4909249;29;20564;-84
2023/07/03 08:30:03;;;;;;;6.50;3.00;;;20.80;68.60;;;;;;4926263;29;20489;-85
2023/07/03 08:32:37;;;;;;;8.60;3.47;;;20.60;68.90;;;;;;4907962;29;20476;-85
2023/07/03 08:35:44;;;;;;;6.10;2.67;;;20.60;68.70;;;;;;4924645;29;20470;-85
2023/07/03 08:38:28;;;;;;;3.90;2.80;;;20.90;67.80;;;;;;4926846;29;20503;-85
2023/07/03 08:41:11;;;;;;;5.17;2.70;;;21.10;66.60;;;;;;4904947;29;20474;-86
2023/07/03 09:00:43;;;;;;;9.80;2.83;;;23.10;59.30;;;;;;4898586;29;20450;-88
2023/07/03 09:04:21;;;;;;;;;;;;;;;;;;;;;
2023/07/03 09:11:41;;;;;;;5.80;2.40;;;23.00;60.60;;;;;;4814644;29;20456;-86
2023/07/03 09:15:22;;;;;;;;;;;;;;;;;;;;;
2023/07/03 09:21:44;;;;;;;4.87;2.50;;;22.60;58.70;;;;;;4842478;29;20475;-84
2023/07/03 09:29:13;;;;;;;5.10;2.47;;;22.30;58.00;;;;;;4851757;29;20457;-86
2023/07/03 09:32:36;;;;;;;5.77;2.87;;;21.90;58.10;;;;;;4858892;29;20441;-87
2023/07/03 09:40:08;;;;;;;4.57;2.20;;;21.80;59.40;;;;;;4853227;29;20663;-84
2023/07/03 09:43:44;;;;;;;6.10;2.30;;;21.80;59.10;;;;;;4825773;29;20466;-84
2023/07/03 09:47:05;;;;;;;6.70;2.47;;;21.70;58.10;;;;;;4805753;29;20496;-83
2023/07/03 09:57:36;;;;;;;4.43;2.80;;;21.60;59.40;;;;;;4918801;29;20456;-85
2023/07/03 10:01:28;;;;;;;;;;;;;;;;;;;;;
2023/07/03 10:05:13;;;;;;;5.23;2.90;;;21.70;58.80;;;;;;4885789;29;20439;-85
2023/07/03 10:08:32;;;;;;;6.23;2.97;;;21.50;59.40;;;;;;4849805;29;20529;-84
2023/07/03 10:15:23;;;;;;;5.40;2.57;;;21.30;59.90;;;;;;4842196;29;21986;-86
2023/07/03 10:18:27;;;;;;;2.93;2.50;;;21.30;60.30;;;;;;4821776;29;20999;-84
2023/07/03 10:21:59;;;;;;;5.33;2.43;;;21.50;59.90;;;;;;4844886;29;20481;-84
2023/07/03 10:29:44;;;;;;;4.47;2.43;;;22.70;57.90;;;;;;4848686;29;20749;-86
2023/07/03 10:33:45;;;;;;;5.03;2.50;;;24.20;54.10;;;;;;4704050;30;20485;-85
2023/07/03 10:36:53;;;;;;;;;;;;;;;;;;;;;
2023/07/03 10:48:42;;;;;;;;;;;;;;;;;;;;;
2023/07/03 10:52:04;;;;;;;;;;;;;;;;;;;;;
2023/07/03 10:55:50;;;;;;;5.63;2.83;;;22.20;57.20;;;;;;4897106;29;22041;-86
2023/07/03 10:59:08;;;;;;;4.50;2.53;;;22.20;58.20;;;;;;4899555;29;20455;-85
2023/07/03 11:02:53;;;;;;;5.60;2.63;;;22.80;57.70;;;;;;4821706;29;20953;-86
2023/07/03 11:06:48;;;;;;;;;;;;;;;;;;;;;
2023/07/03 11:10:40;;;;;;;;;;;;;;;;;;;;;
2023/07/03 11:14:17;;;;;;;5.63;2.53;;;23.10;56.00;;;;;;4749889;30;20546;-88
2023/07/03 11:17:36;;;;;;;5.03;2.73;;;22.70;56.70;;;;;;4769714;29;20470;-83
2023/07/03 11:24:47;;;;;;;4.37;2.90;;;23.00;56.20;;;;;;4842410;29;20567;-84
2023/07/03 11:28:12;;;;;;;7.53;2.30;;;22.80;55.00;;;;;;4857943;29;20476;-85
2023/07/03 11:31:29;;;;;;;5.27;2.40;;;22.60;54.40;;;;;;4840662;29;20590;-86
2023/07/03 11:34:20;;;;;;;3.40;2.70;;;22.50;54.70;;;;;;4851400;29;20468;-82
2023/07/03 11:37:48;;;;;;;4.80;2.30;;;22.40;54.90;;;;;;4860569;29;20529;-85
2023/07/03 11:41:29;;;;;;;4.37;2.90;;;22.10;55.70;;;;;;4837005;29;20478;-85
2023/07/03 11:45:25;;;;;;;3.93;2.50;;;22.00;56.20;;;;;;4866861;29;20434;-83
2023/07/03 11:48:03;;;;;;;3.80;2.10;;;22.00;56.60;;;;;;4860650;29;21269;-85
2023/07/03 11:55:23;;;;;;;;;;;;;;;;;;;;;
2023/07/03 11:59:25;;;;;;;3.57;2.40;;;23.00;55.20;;;;;;4842697;29;20452;-86
2023/07/03 12:03:17;;;;;;;5.20;2.80;;;23.20;54.10;;;;;;4859474;29;20472;-83
2023/07/03 12:07:10;;;;;;;4.57;2.40;;;23.50;53.40;;;;;;4813046;29;21019;-85
2023/07/03 12:10:33;;;;;;;4.03;2.50;;;23.90;53.00;;;;;;4849441;29;20438;-84
2023/07/03 12:13:55;;;;;;;;;;;;;;;;;;;;;
2023/07/03 12:22:31;;;;;;;3.87;2.33;;;24.90;50.20;;;;;;4568055;26;20764;-87
2023/07/03 12:25:59;;;;;;;6.63;2.60;;;25.00;49.70;;;;;;4912114;28;20484;-86
2023/07/03 12:33:14;;;;;;;5.63;2.67;;;24.40;50.40;;;;;;4906864;29;21868;-86
2023/07/03 12:39:58;;;;;;;4.53;2.40;;;23.90;51.10;;;;;;4856527;29;20466;-87
2023/07/03 12:47:25;;;;;;;4.80;2.37;;;23.70;52.00;;;;;;4891252;29;20495;-87
2023/07/03 12:51:00;;;;;;;5.00;2.40;;;23.50;52.60;;;;;;4816656;29;20530;-86
2023/07/03 13:01:37;;;;;;;4.67;2.83;;;24.10;52.70;;;;;;4673673;30;20495;-87
2023/07/03 13:12:48;;;;;;;6.53;3.50;;;23.70;53.50;;;;;;4744821;30;20475;-87
2023/07/03 13:15:34;;;;;;;5.70;2.93;;;23.70;53.50;;;;;;4796659;29;20488;-86
2023/07/03 13:19:33;;;;;;;;;;;;;;;;;;;;;
2023/07/03 13:26:59;;;;;;;6.60;3.07;;;24.10;53.30;;;;;;4759218;29;20492;-87
2023/07/03 13:34:26;;;;;;;3.93;2.50;;;23.90;53.30;;;;;;4812802;29;20643;-86
2023/07/03 13:38:18;;;;;;;7.53;3.87;;;23.90;53.00;;;;;;4812908;29;20463;-86
2023/07/03 13:46:23;;;;;;;6.43;3.90;;;23.80;53.80;;;;;;4796758;29;21356;-84
2023/07/03 13:49:58;;;;;;;;;;;;;;;;;;;;;
2023/07/03 14:37:03;;;;;;;;;;;;;;;;;;;;;
2023/07/03 14:39:59;;;;;;;8.27;3.27;;;23.90;53.40;;;;;;4787342;29;20479;-86
2023/07/03 14:47:19;;;;;;;6.13;3.40;;;24.00;53.50;;;;;;4810376;29;20562;-86
2023/07/03 14:50:52;;;;;;;5.33;3.10;;;24.00;53.70;;;;;;4815843;29;20617;-85
2023/07/03 14:54:36;;;;;;;5.40;3.20;;;23.90;53.90;;;;;;4831405;29;21051;-86
2023/07/03 14:58:26;;;;;;;;;;;;;;;;;;;;;
2023/07/03 15:09:32;;;;;;;;;;;;;;;;;;;;;
2023/07/03 15:15:56;;;;;;;5.33;3.60;;;24.40;54.60;;;;;;4835989;23;20588;-85
2023/07/03 15:28:01;;;;;;;5.30;3.80;;;24.00;55.70;;;;;;4694384;30;20501;-86
2023/07/03 15:31:47;;;;;;;;;;;;;;;;;;;;;
2023/07/03 15:39:37;;;;;;;5.50;4.10;;;24.50;55.30;;;;;;4805263;29;20470;-85
2023/07/03 15:46:33;;;;;;;8.63;4.60;;;24.10;55.90;;;;;;4712339;30;20503;-86
2023/07/03 15:50:00;;;;;;;7.17;4.87;;;24.20;56.30;;;;;;4710374;30;20578;-86
2023/07/03 15:53:39;;;;;;;7.03;5.50;;;24.50;55.70;;;;;;4699474;30;20439;-86
2023/07/03 16:09:05;;;;;;;;;;;;;;;;;;;;;
2023/07/03 18:49:24;;;;;;;;;;;;;;;;;;;;;
2023/07/03 18:52:47;;;;;;;6.17;3.90;;;22.90;55.10;;;;;;4841417;29;20457;-84
2023/07/03 18:59:50;;;;;;;;;;;;;;;;;;;;;
2023/07/03 19:03:37;;;;;;;10.30;4.03;;;22.80;55.20;;;;;;4820093;29;20454;-84
2023/07/03 19:18:53;;;;;;;9.23;4.47;;;22.60;55.70;;;;;;4849931;29;20487;-84
2023/07/03 19:22:27;;;;;;;7.17;4.80;;;22.50;56.30;;;;;;4779809;30;20457;-86
2023/07/03 19:26:02;;;;;;;7.13;5.23;;;22.50;55.90;;;;;;4756859;30;20462;-85
2023/07/03 19:33:33;;;;;;;9.17;5.97;;;22.40;56.30;;;;;;4828195;29;20425;-85
2023/07/03 19:37:18;;;;;;;8.20;5.43;;;22.40;56.50;;;;;;4830836;29;20877;-85
2023/07/03 20:07:32;;;;;;;7.63;4.17;;;22.10;57.70;;;;;;4708236;30;20635;-86
2023/07/03 20:18:37;;;;;;;8.87;4.83;;;22.00;58.20;;;;;;4700337;30;20464;-86
2023/07/03 20:25:35;;;;;;;8.07;4.17;;;21.80;58.60;;;;;;4713190;30;20469;-84
2023/07/03 20:28:42;;;;;;;8.00;4.00;;;21.80;58.70;;;;;;4715508;30;20510;-84
2023/07/03 20:43:35;;;;;;;8.00;4.07;;;21.60;59.40;;;;;;4708568;30;20449;-88
2023/07/03 20:50:59;;;;;;;6.20;4.20;;;21.60;59.80;;;;;;4736128;29;20463;-85
2023/07/03 21:05:39;;;;;;;;;;;;;;;;;;;;;
2023/07/03 21:16:50;;;;;;;4.83;3.47;;;20.90;62.50;;;;;;4712117;30;20571;-85
2023/07/03 21:19:39;;;;;;;5.20;2.87;;;20.80;62.40;;;;;;4708666;30;20480;-85
2023/07/03 21:22:29;;;;;;;6.73;3.20;;;20.70;62.20;;;;;;4674964;30;20451;-84
2023/07/03 21:33:41;;;;;;;6.90;3.23;;;20.60;62.80;;;;;;4946367;26;20470;-86
2023/07/03 21:41:32;;;;;;;7.87;3.00;;;20.60;62.90;;;;;;4812590;29;20473;-84
2023/07/03 21:56:09;;;;;;;;;;;;;;;;;;;;;
2023/07/03 21:59:41;;;;;;;4.07;2.67;;;20.50;63.60;;;;;;4794013;30;20957;-83
2023/07/03 22:03:40;;;;;;;;;;;;;;;;;;;;;
2023/07/03 22:17:46;;;;;;;3.90;2.40;;;20.40;63.30;;;;;;4868832;29;20444;-83
2023/07/03 22:21:53;;;;;;;5.20;2.90;;;20.30;62.90;;;;;;4828665;29;20477;-84
2023/07/03 22:25:03;;;;;;;;;;;;;;;;;;;;;
2023/07/03 22:29:14;;;;;;;;;;;;;;;;;;;;;
2023/07/03 22:39:39;;;;;;;4.00;2.03;;;20.00;64.60;;;;;;4890606;29;20451;-88
2023/07/03 22:42:47;;;;;;;3.20;1.97;;;19.90;64.70;;;;;;4885218;29;20479;-85
2023/07/03 22:53:46;;;;;;;7.97;2.40;;;19.80;65.30;;;;;;4860770;29;20464;-87
2023/07/03 22:56:38;;;;;;;5.03;2.27;;;19.80;65.60;;;;;;4861102;29;20492;-85
2023/07/03 22:59:35;;;;;;;4.40;2.50;;;19.80;65.60;;;;;;4888186;29;20461;-86
2023/07/03 23:02:55;;;;;;;5.97;2.63;;;19.70;65.80;;;;;;4876357;29;20541;-85
2023/07/03 23:05:58;;;;;;;3.70;2.43;;;19.70;66.10;;;;;;4882410;29;20497;-86
2023/07/03 23:13:24;;;;;;;;;;;;;;;;;;;;;
2023/07/03 23:20:25;;;;;;;3.73;2.30;;;19.50;67.00;;;;;;4900525;29;20541;-86
2023/07/03 23:27:51;;;;;;;3.60;2.67;;;19.50;67.80;;;;;;4827269;29;20476;-86
2023/07/03 23:31:31;;;;;;;;;;;;;;;;;;;;;
2023/07/03 23:38:27;;;;;;;5.83;2.23;;;19.50;68.20;;;;;;4887025;29;20504;-86
2023/07/03 23:45:28;;;;;;;9.93;4.20;;;19.40;68.40;;;;;;4880723;29;20503;-87
2023/07/03 23:48:54;;;;;;;;;;;;;;;;;;;;;
2023/07/03 23:52:06;;;;;;;4.80;2.10;;;19.40;69.00;;;;;;4877833;29;20444;-86
2023/07/03 23:55:40;;;;;;;5.50;2.67;;;19.40;69.10;;;;;;4809058;29;20535;-86
